Terminal Aerodrome Forecast
Issued by NWS

Home | Current Version | Previous Version | Text Only | Print | Product List | Glossary On
Versions: 1 2 3 4 5 6 7 8 9 10 11 12 13 14 15 16 17 18
865
FTUS46 KLOX 242018 AAC
TAFSBA
TAF AMD
KSBA 242018Z 2420/2518 15006KT 6SM HZ SCT004
     FM242200 22008KT P6SM SKC
     FM250400 VRB03KT P6SM SKC
     FM250900 11006KT 6SM BR BKN007
     FM251100 14006KT P6SM OVC010
     FM251600 18005KT P6SM OVC012=

USA.gov is the U.S. government's official web portal to all federal, state and local government web resources and services.